KVGT/VGT METAR and TAF weather

Enter ICAO airport designator
Station Type Date Time Source
KVGT METAR 2023/03/22 09:53 UTC NOAA

KVGT 220953Z AUTO 20015G25KT 10SM CLR 08/01 A2967 RMK AO2 SLP060 T00830006


Station Type Date Time Source
KVGT Decoded METAR 2023/03/22 09:53 UTC NOAA

NORTH LAS VEGAS, NV, United States (KVGT) 36-12N 115-11W
Mar 22, 2023 - 05:53 AM EDT / 2023.03.22 0953 UTC
Wind: from the SSW (200 degrees) at 17 MPH (15 KT) gusting to 29 MPH (25 KT):0
Visibility: 10 mile(s):0
Sky conditions: clear
Temperature: 46.9 F (8.3 C)
Dew Point: 33.1 F (0.6 C)
Relative Humidity: 58%
Pressure (altimeter): 29.67 in. Hg (1004 hPa)
ob: KVGT 220953Z AUTO 20015G25KT 10SM CLR 08/01 A2967 RMK AO2 SLP060 T00830006
cycle: 10

Station Type Date Time Source
KVGT TAF 2023/03/22 10:36 UTC NOAA

TAF
AMD KVGT 220935Z 2210/2306 21010KT P6SM SCT080
FM221400 23016G26KT P6SM SCT100
FM222200 24014G23KT P6SM VCSH BKN080
FM230400 22008KT P6SM BKN080

Example: see airport list